createdAt,value
2022-11-28T00:01:43.469Z,92.04
2022-11-28T00:04:11.070Z,91.64
2022-11-28T00:06:45.333Z,91.90
2022-11-28T00:09:13.693Z,91.45
2022-11-28T00:11:42.310Z,90.75
2022-11-28T00:14:09.851Z,91.54
2022-11-28T00:16:36.809Z,91.08
2022-11-28T00:19:06.879Z,90.76
2022-11-28T00:21:38.041Z,90.77
2022-11-28T00:24:05.370Z,91.28
2022-11-28T00:26:42.318Z,91.07
2022-11-28T00:29:10.117Z,90.77
2022-11-28T00:31:42.747Z,90.42
2022-11-28T00:34:12.320Z,90.91
2022-11-28T00:36:38.850Z,90.68
2022-11-28T00:39:10.346Z,90.78
2022-11-28T00:41:37.102Z,91.59
2022-11-28T00:44:08.460Z,91.65
2022-11-28T00:46:35.710Z,91.74
2022-11-28T00:49:02.238Z,91.72
2022-11-28T00:51:33.141Z,90.87
2022-11-28T00:54:01.217Z,91.07
2022-11-28T00:56:30.947Z,90.70
2022-11-28T00:59:00.711Z,89.85
2022-11-28T01:01:33.537Z,90.58
2022-11-28T01:04:04.858Z,90.24
2022-11-28T01:06:34.613Z,89.96
2022-11-28T01:09:05.080Z,89.76
2022-11-28T01:11:34.484Z,89.59
2022-11-28T01:14:04.789Z,90.01
2022-11-28T01:16:35.064Z,89.76
2022-11-28T01:19:01.738Z,90.43
2022-11-28T01:21:28.894Z,90.78
2022-11-28T01:23:55.515Z,90.25
2022-11-28T01:26:25.307Z,91.15
2022-11-28T01:28:52.409Z,90.67
2022-11-28T01:31:22.462Z,90.67
2022-11-28T01:33:49.757Z,90.06
2022-11-28T01:36:20.087Z,89.02
2022-11-28T01:38:49.368Z,89.81
2022-11-28T01:41:22.181Z,90.06
2022-11-28T01:44:10.527Z,89.69
2022-11-28T01:46:39.906Z,89.38
2022-11-28T01:49:13.529Z,88.77
2022-11-28T01:51:44.675Z,89.52
2022-11-28T01:54:14.883Z,89.70
2022-11-28T01:56:51.301Z,88.89
2022-11-28T01:59:20.536Z,89.38
2022-11-28T02:01:49.414Z,88.78
2022-11-28T02:04:16.040Z,88.46
2022-11-28T02:06:45.229Z,89.28
2022-11-28T02:09:16.420Z,89.37
2022-11-28T02:12:01.880Z,89.61
2022-11-28T02:15:04.063Z,89.53
2022-11-28T02:17:51.975Z,89.71
2022-11-28T02:20:39.956Z,89.47
2022-11-28T02:23:23.925Z,89.76
2022-11-28T02:26:26.755Z,89.12
2022-11-28T02:29:12.067Z,89.47
2022-11-28T02:32:17.444Z,89.77
2022-11-28T02:34:57.896Z,88.98
2022-11-28T02:37:37.181Z,89.13
2022-11-28T02:40:14.701Z,89.02
2022-11-28T02:43:18.752Z,88.57
2022-11-28T02:45:58.130Z,88.23
2022-11-28T02:48:49.332Z,88.29
2022-11-28T02:51:31.176Z,86.87
2022-11-28T02:53:59.906Z,86.74
2022-11-28T02:56:26.631Z,87.38
2022-11-28T02:58:57.849Z,86.93
2022-11-28T03:01:31.992Z,87.24
2022-11-28T03:04:18.491Z,87.53
2022-11-28T03:07:09.878Z,87.75
2022-11-28T03:10:13.915Z,87.22
2022-11-28T03:13:01.861Z,87.67
2022-11-28T03:15:44.542Z,87.41
2022-11-28T03:18:20.433Z,86.90
2022-11-28T03:20:48.470Z,86.93
2022-11-28T03:23:19.635Z,86.71
2022-11-28T03:26:00.183Z,87.54
2022-11-28T03:28:43.860Z,87.11
2022-11-28T03:31:29.582Z,87.42
2022-11-28T03:33:59.642Z,87.48
2022-11-28T03:36:34.514Z,86.90
2022-11-28T03:39:14.095Z,86.75
2022-11-28T03:42:03.133Z,86.66
2022-11-28T03:44:35.647Z,87.22
2022-11-28T03:47:05.251Z,87.39
2022-11-28T03:49:37.824Z,87.55
2022-11-28T03:52:12.395Z,87.66
2022-11-28T03:55:11.288Z,88.40
2022-11-28T03:57:59.827Z,89.33
2022-11-28T04:00:29.964Z,89.16
2022-11-28T04:03:09.515Z,89.07
2022-11-28T04:05:48.344Z,88.97
2022-11-28T04:08:19.346Z,89.49
2022-11-28T04:10:58.305Z,89.27
2022-11-28T04:13:53.032Z,89.37
2022-11-28T04:16:38.505Z,89.62
2022-11-28T04:19:14.566Z,89.39
2022-11-28T04:21:46.473Z,89.82
2022-11-28T04:24:20.983Z,89.73
2022-11-28T04:27:10.634Z,88.89
2022-11-28T04:29:47.767Z,89.56
2022-11-28T04:32:19.570Z,89.57
2022-11-28T04:34:52.911Z,89.83
2022-11-28T04:37:24.781Z,90.18
2022-11-28T04:39:52.609Z,89.86
2022-11-28T04:42:38.001Z,90.18
2022-11-28T04:45:22.112Z,89.95
2022-11-28T04:47:48.944Z,90.34
2022-11-28T04:50:17.975Z,89.55
2022-11-28T04:53:14.584Z,89.74
2022-11-28T04:55:45.273Z,89.84
2022-11-28T04:58:18.509Z,89.38
2022-11-28T05:00:47.251Z,89.58
2022-11-28T05:03:14.245Z,89.78
2022-11-28T05:05:51.360Z,89.35
2022-11-28T05:08:19.039Z,89.91
2022-11-28T05:10:48.795Z,90.16
2022-11-28T05:13:15.521Z,90.47
2022-11-28T05:15:44.357Z,90.01
2022-11-28T05:18:11.080Z,89.76
2022-11-28T05:20:38.546Z,90.27
2022-11-28T05:23:07.673Z,90.51
2022-11-28T05:25:34.289Z,90.91
2022-11-28T05:28:00.870Z,90.66
2022-11-28T05:30:27.394Z,90.05
2022-11-28T05:32:53.985Z,90.88
2022-11-28T05:35:25.441Z,90.84
2022-11-28T05:37:56.599Z,90.26
2022-11-28T05:40:23.369Z,90.30
2022-11-28T05:42:54.762Z,89.80
2022-11-28T05:45:21.357Z,90.40
2022-11-28T05:47:47.899Z,89.95
2022-11-28T05:50:14.560Z,88.98
2022-11-28T05:52:41.137Z,89.32
2022-11-28T05:55:12.726Z,89.84
2022-11-28T05:57:39.245Z,90.75
2022-11-28T06:00:09.216Z,90.57
2022-11-28T06:02:38.833Z,89.91
2022-11-28T06:05:34.797Z,89.45
2022-11-28T06:07:57.413Z,90.00
2022-11-28T06:10:24.055Z,89.57
2022-11-28T06:12:52.773Z,89.17
2022-11-28T06:15:19.363Z,89.77
2022-11-28T06:17:45.866Z,90.24
2022-11-28T06:20:12.482Z,89.98
2022-11-28T06:22:39.022Z,90.17
2022-11-28T06:25:10.447Z,89.39
2022-11-28T06:27:36.934Z,89.18
2022-11-28T06:30:04.037Z,89.49
2022-11-28T06:32:30.672Z,88.51
2022-11-28T06:34:57.200Z,89.31
2022-11-28T06:37:23.786Z,89.67
2022-11-28T06:39:51.282Z,89.90
2022-11-28T06:42:18.312Z,90.08
2022-11-28T06:44:47.369Z,90.13
2022-11-28T06:47:18.668Z,89.65
2022-11-28T06:49:50.433Z,89.35
2022-11-28T06:52:19.157Z,89.19
2022-11-28T06:54:50.981Z,89.29
2022-11-28T06:57:17.552Z,89.16
2022-11-28T06:59:44.167Z,88.97
2022-11-28T07:02:13.436Z,88.81
2022-11-28T07:04:40.077Z,89.34
2022-11-28T07:07:12.524Z,89.55
2022-11-28T07:09:44.445Z,90.79
2022-11-28T07:12:13.813Z,90.30
2022-11-28T07:14:45.237Z,88.97
2022-11-28T07:17:16.411Z,88.29
2022-11-28T07:19:43.177Z,88.01
2022-11-28T07:22:12.153Z,88.60
2022-11-28T07:24:38.746Z,90.07
2022-11-28T07:27:07.539Z,88.77
2022-11-28T07:29:36.803Z,89.03
2022-11-28T07:32:05.717Z,89.31
2022-11-28T07:34:35.429Z,89.49
2022-11-28T07:37:06.845Z,88.74
2022-11-28T07:39:35.657Z,87.89
2022-11-28T07:42:02.164Z,88.34
2022-11-28T07:44:28.698Z,87.70
2022-11-28T07:46:55.269Z,86.90
2022-11-28T07:49:21.959Z,87.78
2022-11-28T07:51:50.792Z,87.18
2022-11-28T07:54:19.567Z,87.88
2022-11-28T07:59:35.422Z,91.75
2022-11-28T08:02:04.495Z,88.66
2022-11-28T08:04:31.105Z,86.07
2022-11-28T08:06:59.823Z,86.38
2022-11-28T08:09:26.355Z,85.10
2022-11-28T08:11:52.891Z,83.18
2022-11-28T08:14:24.684Z,83.87
2022-11-28T08:16:51.565Z,83.24
2022-11-28T08:19:24.607Z,85.22
2022-11-28T08:21:51.374Z,85.00
2022-11-28T08:24:18.056Z,84.42
2022-11-28T08:26:44.570Z,84.23
2022-11-28T08:29:13.537Z,83.45
2022-11-28T08:31:40.630Z,84.20
2022-11-28T08:34:10.705Z,83.65
2022-11-28T08:36:37.248Z,82.25
2022-11-28T08:41:52.175Z,81.80
2022-11-28T08:44:21.967Z,80.56
2022-11-28T08:46:50.782Z,79.35
2022-11-28T08:49:19.679Z,79.43
2022-11-28T08:51:48.657Z,80.38
2022-11-28T08:54:15.194Z,80.21
2022-11-28T08:56:41.773Z,79.04
2022-11-28T08:59:08.295Z,78.19
2022-11-28T09:01:39.520Z,78.79
2022-11-28T09:04:06.205Z,79.58
2022-11-28T09:06:32.816Z,81.85
2022-11-28T09:09:02.031Z,83.51
2022-11-28T09:11:28.434Z,82.71
2022-11-28T09:13:55.757Z,80.16
2022-11-28T09:16:22.989Z,79.91
2022-11-28T09:18:49.593Z,80.56
2022-11-28T09:21:16.116Z,80.73
2022-11-28T09:23:44.350Z,81.64
2022-11-28T09:26:19.816Z,80.23
2022-11-28T09:28:46.343Z,80.33
2022-11-28T09:31:13.891Z,79.92
2022-11-28T09:33:40.980Z,80.92
2022-11-28T09:36:12.303Z,79.48
2022-11-28T09:38:39.115Z,79.86
2022-11-28T09:41:22.037Z,80.50
2022-11-28T09:43:55.068Z,78.92
2022-11-28T09:46:31.186Z,78.83
2022-11-28T09:49:02.645Z,77.41
2022-11-28T09:51:55.680Z,77.06
2022-11-28T09:54:48.486Z,77.24
2022-11-28T09:57:48.683Z,76.76
2022-11-28T10:00:24.535Z,77.51
2022-11-28T10:03:25.302Z,77.71
2022-11-28T10:06:27.325Z,77.01
2022-11-28T10:09:12.375Z,76.96
2022-11-28T10:12:10.406Z,76.48
2022-11-28T10:15:08.625Z,75.21
2022-11-28T10:18:06.601Z,76.22
2022-11-28T10:20:39.432Z,76.29
2022-11-28T10:23:24.145Z,75.59
2022-11-28T10:25:56.633Z,75.91
2022-11-28T10:28:35.490Z,75.62
2022-11-28T10:31:32.538Z,75.17
2022-11-28T10:34:23.944Z,74.89
2022-11-28T10:36:55.813Z,75.89
2022-11-28T10:39:22.503Z,75.49
2022-11-28T10:42:12.033Z,76.35
2022-11-28T10:44:49.546Z,75.99
2022-11-28T10:47:43.712Z,75.97
2022-11-28T10:50:38.590Z,76.93
2022-11-28T10:53:20.138Z,75.48
2022-11-28T10:56:22.495Z,76.46
2022-11-28T10:59:21.246Z,75.83
2022-11-28T11:01:52.364Z,75.08
2022-11-28T11:04:27.287Z,76.59
2022-11-28T11:07:16.288Z,76.28
2022-11-28T11:09:48.628Z,76.20
2022-11-28T11:12:27.022Z,74.40
2022-11-28T11:14:58.859Z,75.25
2022-11-28T11:17:37.852Z,75.09
2022-11-28T11:20:22.788Z,75.79
2022-11-28T11:23:03.317Z,75.55
2022-11-28T11:25:32.569Z,76.00
2022-11-28T11:28:02.698Z,76.42
2022-11-28T11:30:35.565Z,75.91
2022-11-28T11:33:07.482Z,76.92
2022-11-28T11:35:39.239Z,76.87
2022-11-28T11:38:37.936Z,76.48
2022-11-28T11:41:44.474Z,76.13
2022-11-28T11:44:13.699Z,75.65
2022-11-28T11:47:01.767Z,76.92
2022-11-28T11:49:29.510Z,76.29
2022-11-28T11:52:15.254Z,77.18
2022-11-28T11:54:57.045Z,77.32
2022-11-28T11:57:47.097Z,77.54
2022-11-28T12:00:13.615Z,77.16
2022-11-28T12:02:43.509Z,76.04
2022-11-28T12:05:15.382Z,75.94
2022-11-28T12:07:48.881Z,76.01
2022-11-28T12:10:19.628Z,77.52
2022-11-28T12:12:46.243Z,75.74
2022-11-28T12:15:20.447Z,74.55
2022-11-28T12:18:20.314Z,74.52
2022-11-28T12:20:49.153Z,74.75
2022-11-28T12:23:45.256Z,74.14
2022-11-28T12:26:24.704Z,77.03
2022-11-28T12:29:21.705Z,74.22
2022-11-28T12:32:45.531Z,75.52
2022-11-28T12:35:22.951Z,75.04
2022-11-28T12:38:10.667Z,74.89
2022-11-28T12:40:59.316Z,74.31
2022-11-28T12:44:11.646Z,73.58
2022-11-28T12:46:47.904Z,74.31
2022-11-28T12:49:19.870Z,75.51
2022-11-28T12:52:10.848Z,74.72
2022-11-28T12:55:03.248Z,74.38
2022-11-28T12:57:38.675Z,73.96
2022-11-28T13:00:10.577Z,74.47
2022-11-28T13:02:42.905Z,73.77
2022-11-28T13:05:28.355Z,74.27
2022-11-28T13:08:25.952Z,74.74
2022-11-28T13:11:33.246Z,74.57
2022-11-28T13:14:21.388Z,75.08
2022-11-28T13:16:50.945Z,75.26
2022-11-28T13:19:55.215Z,75.25
2022-11-28T13:22:30.814Z,75.42
2022-11-28T13:25:19.942Z,76.63
2022-11-28T13:28:01.287Z,75.17
2022-11-28T13:30:31.540Z,77.01
2022-11-28T13:33:25.129Z,77.07
2022-11-28T13:35:53.210Z,78.31
2022-11-28T13:38:36.742Z,78.15
2022-11-28T13:42:03.554Z,78.07
2022-11-28T13:44:25.901Z,78.06
2022-11-28T13:46:52.483Z,77.56
2022-11-28T13:49:21.333Z,78.42
2022-11-28T13:51:48.551Z,78.66
2022-11-28T13:54:18.267Z,78.29
2022-11-28T13:57:09.019Z,77.36
2022-11-28T13:59:36.907Z,77.41
2022-11-28T14:02:16.152Z,76.93
2022-11-28T14:04:48.489Z,78.61
2022-11-28T14:07:33.204Z,78.50
2022-11-28T14:10:12.867Z,78.34
2022-11-28T14:13:13.320Z,78.59
2022-11-28T14:16:00.871Z,78.63
2022-11-28T14:19:02.600Z,78.97
2022-11-28T14:21:59.687Z,79.94
2022-11-28T14:24:56.882Z,78.98
2022-11-28T14:27:35.465Z,80.05
2022-11-28T14:30:02.593Z,79.13
2022-11-28T14:32:58.421Z,79.09
2022-11-28T14:35:49.864Z,78.52
2022-11-28T14:38:31.500Z,79.25
2022-11-28T14:41:03.377Z,78.68
2022-11-28T14:43:32.609Z,79.56
2022-11-28T14:46:24.451Z,80.01
2022-11-28T14:48:59.988Z,80.62
2022-11-28T14:51:47.793Z,81.05
2022-11-28T14:54:25.534Z,83.04
2022-11-28T14:56:58.202Z,85.83
2022-11-28T14:59:32.872Z,79.38
2022-11-28T15:02:11.538Z,79.53
2022-11-28T15:04:40.844Z,79.81
2022-11-28T15:07:16.462Z,79.85
2022-11-28T15:09:56.181Z,80.23
2022-11-28T15:12:33.512Z,80.24
2022-11-28T15:15:00.144Z,80.85
2022-11-28T15:17:33.419Z,80.18
2022-11-28T15:20:15.176Z,80.87
2022-11-28T15:22:43.500Z,80.89
2022-11-28T15:25:24.538Z,81.80
2022-11-28T15:27:55.462Z,82.19
2022-11-28T15:30:28.768Z,82.22
2022-11-28T15:33:00.209Z,82.31
2022-11-28T15:35:27.876Z,82.12
2022-11-28T15:37:57.310Z,82.77
2022-11-28T15:40:36.626Z,83.33
2022-11-28T15:43:09.569Z,83.06
2022-11-28T15:45:42.208Z,82.20
2022-11-28T15:48:25.233Z,83.42
2022-11-28T15:50:54.175Z,83.08
2022-11-28T15:53:21.534Z,82.57
2022-11-28T15:56:06.670Z,82.53
2022-11-28T15:58:38.087Z,82.97
2022-11-28T16:01:23.976Z,82.57
2022-11-28T16:03:57.234Z,82.46
2022-11-28T16:06:29.348Z,83.20
2022-11-28T16:09:09.346Z,83.89
2022-11-28T16:11:44.032Z,83.82
2022-11-28T16:14:21.358Z,84.15
2022-11-28T16:16:48.168Z,84.41
2022-11-28T16:19:32.874Z,84.59
2022-11-28T16:22:13.833Z,83.34
2022-11-28T16:24:46.310Z,83.64
2022-11-28T16:27:34.235Z,83.68
2022-11-28T16:30:24.415Z,84.54
2022-11-28T16:32:52.518Z,83.84
2022-11-28T16:35:38.966Z,83.95
2022-11-28T16:38:09.780Z,83.47
2022-11-28T16:40:38.708Z,83.37
2022-11-28T16:43:06.246Z,83.55
2022-11-28T16:45:33.958Z,83.04
2022-11-28T16:48:02.763Z,83.07
2022-11-28T16:50:29.284Z,83.80
2022-11-28T16:52:57.836Z,84.70
2022-11-28T16:55:29.687Z,85.53
2022-11-28T16:58:13.133Z,85.26
2022-11-28T17:00:43.916Z,85.77
2022-11-28T17:03:49.057Z,85.45
2022-11-28T17:06:23.901Z,85.56
2022-11-28T17:08:53.172Z,85.75
2022-11-28T17:11:26.598Z,85.50
2022-11-28T17:13:56.168Z,86.49
2022-11-28T17:16:27.737Z,85.46
2022-11-28T17:18:54.363Z,84.08
2022-11-28T17:21:33.162Z,84.57
2022-11-28T17:24:05.147Z,84.56
2022-11-28T17:26:33.985Z,85.28
2022-11-28T17:29:00.477Z,85.71
2022-11-28T17:31:29.340Z,86.53
2022-11-28T17:33:58.337Z,86.72
2022-11-28T17:36:24.896Z,86.56
2022-11-28T17:38:51.480Z,87.07
2022-11-28T17:41:18.293Z,87.33
2022-11-28T17:43:44.861Z,86.51
2022-11-28T17:46:11.449Z,86.01
2022-11-28T17:48:38.003Z,85.35
2022-11-28T17:51:05.511Z,86.10
2022-11-28T17:53:32.019Z,86.41
2022-11-28T17:55:59.875Z,86.35
2022-11-28T17:58:29.208Z,86.34
2022-11-28T18:01:00.739Z,86.56
2022-11-28T18:03:32.546Z,86.48
2022-11-28T18:06:01.347Z,87.10
2022-11-28T18:08:27.954Z,87.35
2022-11-28T18:11:09.815Z,87.05
2022-11-28T18:13:36.506Z,86.66
2022-11-28T18:16:03.462Z,86.67
2022-11-28T18:18:30.438Z,86.29
2022-11-28T18:20:56.979Z,85.56
2022-11-28T18:23:25.759Z,85.88
2022-11-28T18:25:52.315Z,86.14
2022-11-28T18:28:20.467Z,85.40
2022-11-28T18:30:47.782Z,85.50
2022-11-28T18:33:15.580Z,85.49
2022-11-28T18:35:42.760Z,85.21
2022-11-28T18:38:12.066Z,86.19
2022-11-28T18:40:39.016Z,87.52
2022-11-28T18:43:08.168Z,87.17
2022-11-28T18:45:35.279Z,88.16
2022-11-28T18:48:03.945Z,88.44
2022-11-28T18:50:30.491Z,88.02
2022-11-28T18:52:57.077Z,87.23
2022-11-28T18:55:23.668Z,86.25
2022-11-28T18:57:53.271Z,86.16
2022-11-28T19:00:20.553Z,86.01
2022-11-28T19:02:49.677Z,86.00
2022-11-28T19:05:16.313Z,86.59
2022-11-28T19:07:42.981Z,86.65
2022-11-28T19:10:12.691Z,87.04
2022-11-28T19:12:41.532Z,87.22
2022-11-28T19:15:11.660Z,87.07
2022-11-28T19:17:40.586Z,87.37
2022-11-28T19:20:11.140Z,87.58
2022-11-28T19:22:40.058Z,87.36
2022-11-28T19:25:07.738Z,88.42
2022-11-28T19:27:36.791Z,87.79
2022-11-28T19:30:06.651Z,87.81
2022-11-28T19:32:33.302Z,87.65
2022-11-28T19:35:04.652Z,87.26
2022-11-28T19:37:33.877Z,87.77
2022-11-28T19:40:05.274Z,87.91
2022-11-28T19:42:34.252Z,87.83
2022-11-28T19:45:03.265Z,87.92
2022-11-28T19:47:29.829Z,87.25
2022-11-28T19:49:58.753Z,87.75
2022-11-28T19:52:28.065Z,88.03
2022-11-28T19:54:56.983Z,88.16
2022-11-28T19:57:26.471Z,88.00
2022-11-28T19:59:52.963Z,87.48
2022-11-28T20:02:23.429Z,87.23
2022-11-28T20:04:50.020Z,88.33
2022-11-28T20:07:19.292Z,88.08
2022-11-28T20:09:45.936Z,87.27
2022-11-28T20:12:17.569Z,88.07
2022-11-28T20:14:46.687Z,88.48
2022-11-28T20:17:13.404Z,88.97
2022-11-28T20:19:45.247Z,89.54
2022-11-28T20:22:14.451Z,89.17
2022-11-28T20:24:43.572Z,88.58
2022-11-28T20:27:12.642Z,88.60
2022-11-28T20:29:39.396Z,88.84
2022-11-28T20:32:08.682Z,90.61
2022-11-28T20:34:35.143Z,88.86
2022-11-28T20:37:02.327Z,88.85
2022-11-28T20:39:33.687Z,87.24
2022-11-28T20:42:00.679Z,86.83
2022-11-28T20:44:27.580Z,86.91
2022-11-28T20:46:56.466Z,86.91
2022-11-28T20:49:23.189Z,87.70
2022-11-28T20:51:57.747Z,87.29
2022-11-28T20:54:26.756Z,88.46
2022-11-28T20:59:43.225Z,89.22
2022-11-28T21:02:11.514Z,88.72
2022-11-28T21:04:42.921Z,89.10
2022-11-28T21:07:12.056Z,89.76
2022-11-28T21:09:40.944Z,90.34
2022-11-28T21:12:07.823Z,90.29
2022-11-28T21:17:47.497Z,90.05
2022-11-28T21:20:16.319Z,89.92
2022-11-28T21:22:45.613Z,89.75
2022-11-28T21:25:14.523Z,89.66
2022-11-28T21:27:43.921Z,89.50
2022-11-28T21:30:10.944Z,89.69
2022-11-28T21:32:39.985Z,89.17
2022-11-28T21:35:06.943Z,89.71
2022-11-28T21:37:35.952Z,88.90
2022-11-28T21:40:02.713Z,89.93
2022-11-28T21:42:29.488Z,89.45
2022-11-28T21:45:01.441Z,89.77
2022-11-28T21:47:30.502Z,90.03
2022-11-28T21:49:59.398Z,89.70
2022-11-28T21:52:26.027Z,89.07
2022-11-28T21:54:57.444Z,89.48
2022-11-28T21:57:28.999Z,89.13
2022-11-28T21:59:58.334Z,88.46
2022-11-28T22:02:30.392Z,88.30
2022-11-28T22:04:59.345Z,88.87
2022-11-28T22:07:26.094Z,88.90
2022-11-28T22:09:55.062Z,87.73
2022-11-28T22:12:21.693Z,87.58
2022-11-28T22:14:48.749Z,87.54
2022-11-28T22:17:15.572Z,87.61
2022-11-28T22:19:42.059Z,87.00
2022-11-28T22:22:14.192Z,87.25
2022-11-28T22:24:41.372Z,87.75
2022-11-28T22:27:08.164Z,88.19
2022-11-28T22:29:39.584Z,87.78
2022-11-28T22:32:11.129Z,87.69
2022-11-28T22:34:40.062Z,87.56
2022-11-28T22:37:07.448Z,87.54
2022-11-28T22:39:40.724Z,87.77
2022-11-28T22:42:09.969Z,88.53
2022-11-28T22:44:36.519Z,88.70
2022-11-28T22:47:05.471Z,88.69
2022-11-28T22:49:32.089Z,88.48
2022-11-28T22:52:08.429Z,89.24
2022-11-28T22:54:35.036Z,88.87
2022-11-28T22:57:04.242Z,90.02
2022-11-28T22:59:35.521Z,90.30
2022-11-28T23:02:03.377Z,90.71
2022-11-28T23:04:30.241Z,89.71
2022-11-28T23:06:56.918Z,90.57
2022-11-28T23:09:23.642Z,91.53
2022-11-28T23:11:50.438Z,92.08
2022-11-28T23:14:17.136Z,92.27
2022-11-28T23:16:49.757Z,91.78
2022-11-28T23:19:19.396Z,91.69
2022-11-28T23:21:50.451Z,91.83
2022-11-28T23:24:20.823Z,91.39
2022-11-28T23:26:49.502Z,91.32
2022-11-28T23:29:16.951Z,90.33
2022-11-28T23:31:47.219Z,90.82
2022-11-28T23:34:16.998Z,90.81
2022-11-28T23:36:49.154Z,91.22
2022-11-28T23:39:22.963Z,90.79
2022-11-28T23:41:55.688Z,90.32
2022-11-28T23:44:24.884Z,90.14
2022-11-28T23:46:51.650Z,90.13
2022-11-28T23:49:18.573Z,90.21
2022-11-28T23:51:45.265Z,90.11
2022-11-28T23:54:14.921Z,90.50
2022-11-28T23:56:44.178Z,90.51
2022-11-28T23:59:11.902Z,90.82
